Terminal Aerodrome Forecast
Issued by NWS

Home | Current Version | Previous Version | Text Only | Print | Product List | Glossary On
Versions: 1 2 3 4 5 6 7 8 9 10 11 12 13 14 15 16 17 18 19 20 21 22 23 24 25 26 27 28 29 30 31 32
830
FTUS41 KOKX 191243 AAA
TAFSWF
TAF AMD
KSWF 191243Z 1913/2018 27018G35KT P6SM BKN020 OVC050
     FM191400 29020G37KT P6SM SCT020 BKN050
     FM192100 30019G30KT P6SM SCT040
     FM200300 29016G25KT P6SM SCT040
     FM200700 28012G19KT P6SM FEW040
     FM201400 28015G24KT P6SM BKN040
      AMD NOT SKED=

USA.gov is the U.S. government's official web portal to all federal, state and local government web resources and services.